sensor_id;sensor_type;location;lat;lon;timestamp;temperature;humidity
52189;DHT22;38162;45.926;13.608;2023-04-12T00:02:15;10.10;67.80
52189;DHT22;38162;45.926;13.608;2023-04-12T00:04:40;10.10;68.00
52189;DHT22;38162;45.926;13.608;2023-04-12T00:07:06;10.10;67.50
52189;DHT22;38162;45.926;13.608;2023-04-12T00:09:34;10.10;68.30
52189;DHT22;38162;45.926;13.608;2023-04-12T00:12:01;10.10;67.10
52189;DHT22;38162;45.926;13.608;2023-04-12T00:14:27;10.00;66.90
52189;DHT22;38162;45.926;13.608;2023-04-12T00:16:54;10.00;66.80
52189;DHT22;38162;45.926;13.608;2023-04-12T00:19:19;9.90;68.30
52189;DHT22;38162;45.926;13.608;2023-04-12T00:21:45;9.90;68.50
52189;DHT22;38162;45.926;13.608;2023-04-12T00:24:12;9.90;68.30
52189;DHT22;38162;45.926;13.608;2023-04-12T00:26:38;9.80;68.00
52189;DHT22;38162;45.926;13.608;2023-04-12T00:29:03;9.80;68.50
52189;DHT22;38162;45.926;13.608;2023-04-12T00:31:29;9.80;69.00
52189;DHT22;38162;45.926;13.608;2023-04-12T00:33:55;9.70;68.50
52189;DHT22;38162;45.926;13.608;2023-04-12T00:36:21;9.70;68.40
52189;DHT22;38162;45.926;13.608;2023-04-12T00:38:46;9.70;68.60
52189;DHT22;38162;45.926;13.608;2023-04-12T00:41:16;9.60;68.40
52189;DHT22;38162;45.926;13.608;2023-04-12T00:43:42;9.60;68.80
52189;DHT22;38162;45.926;13.608;2023-04-12T00:46:09;9.50;68.90
52189;DHT22;38162;45.926;13.608;2023-04-12T00:48:37;9.50;68.60
52189;DHT22;38162;45.926;13.608;2023-04-12T00:51:05;9.50;68.90
52189;DHT22;38162;45.926;13.608;2023-04-12T00:53:32;9.50;69.40
52189;DHT22;38162;45.926;13.608;2023-04-12T00:55:58;9.40;69.20
52189;DHT22;38162;45.926;13.608;2023-04-12T00:58:24;9.40;68.90
52189;DHT22;38162;45.926;13.608;2023-04-12T01:00:50;9.40;69.00
52189;DHT22;38162;45.926;13.608;2023-04-12T01:03:18;9.40;69.50
52189;DHT22;38162;45.926;13.608;2023-04-12T01:06:21;9.40;69.60
52189;DHT22;38162;45.926;13.608;2023-04-12T01:08:59;9.30;70.20
52189;DHT22;38162;45.926;13.608;2023-04-12T01:18:02;9.20;70.20
52189;DHT22;38162;45.926;13.608;2023-04-12T01:20:34;9.20;70.40
52189;DHT22;38162;45.926;13.608;2023-04-12T01:23:23;9.20;70.20
52189;DHT22;38162;45.926;13.608;2023-04-12T01:28:33;9.20;70.70
52189;DHT22;38162;45.926;13.608;2023-04-12T01:31:03;9.20;70.60
52189;DHT22;38162;45.926;13.608;2023-04-12T01:33:33;9.30;70.80
52189;DHT22;38162;45.926;13.608;2023-04-12T01:36:03;9.30;71.00
52189;DHT22;38162;45.926;13.608;2023-04-12T01:38:31;9.30;70.10
52189;DHT22;38162;45.926;13.608;2023-04-12T01:40:58;9.30;69.20
52189;DHT22;38162;45.926;13.608;2023-04-12T01:43:24;9.30;69.10
52189;DHT22;38162;45.926;13.608;2023-04-12T01:45:50;9.30;69.80
52189;DHT22;38162;45.926;13.608;2023-04-12T01:48:16;9.30;70.90
52189;DHT22;38162;45.926;13.608;2023-04-12T01:51:09;9.20;71.00
52189;DHT22;38162;45.926;13.608;2023-04-12T01:53:48;9.20;69.80
52189;DHT22;38162;45.926;13.608;2023-04-12T01:56:18;9.20;69.40
52189;DHT22;38162;45.926;13.608;2023-04-12T01:58:46;9.20;69.80
52189;DHT22;38162;45.926;13.608;2023-04-12T02:01:14;9.10;70.20
52189;DHT22;38162;45.926;13.608;2023-04-12T02:03:42;9.10;70.60
52189;DHT22;38162;45.926;13.608;2023-04-12T02:06:09;9.10;70.70
52189;DHT22;38162;45.926;13.608;2023-04-12T02:08:35;9.10;71.10
52189;DHT22;38162;45.926;13.608;2023-04-12T02:11:08;9.10;71.00
52189;DHT22;38162;45.926;13.608;2023-04-12T02:13:34;9.10;71.70
52189;DHT22;38162;45.926;13.608;2023-04-12T02:15:59;9.10;71.00
52189;DHT22;38162;45.926;13.608;2023-04-12T02:18:27;9.10;71.60
52189;DHT22;38162;45.926;13.608;2023-04-12T02:20:53;9.10;71.10
52189;DHT22;38162;45.926;13.608;2023-04-12T02:23:19;9.10;71.10
52189;DHT22;38162;45.926;13.608;2023-04-12T02:25:45;9.10;71.40
52189;DHT22;38162;45.926;13.608;2023-04-12T02:28:11;9.20;71.90
52189;DHT22;38162;45.926;13.608;2023-04-12T02:30:38;9.10;71.80
52189;DHT22;38162;45.926;13.608;2023-04-12T02:33:06;9.20;71.90
52189;DHT22;38162;45.926;13.608;2023-04-12T02:35:33;9.20;72.10
52189;DHT22;38162;45.926;13.608;2023-04-12T02:37:59;9.20;72.30
52189;DHT22;38162;45.926;13.608;2023-04-12T02:40:24;9.20;72.60
52189;DHT22;38162;45.926;13.608;2023-04-12T02:42:50;9.20;73.00
52189;DHT22;38162;45.926;13.608;2023-04-12T02:45:16;9.20;72.50
52189;DHT22;38162;45.926;13.608;2023-04-12T02:47:42;9.20;72.10
52189;DHT22;38162;45.926;13.608;2023-04-12T02:50:07;9.30;72.10
52189;DHT22;38162;45.926;13.608;2023-04-12T02:52:33;9.30;71.80
52189;DHT22;38162;45.926;13.608;2023-04-12T02:54:59;9.30;71.40
52189;DHT22;38162;45.926;13.608;2023-04-12T02:57:25;9.30;71.10
52189;DHT22;38162;45.926;13.608;2023-04-12T02:59:51;9.30;70.70
52189;DHT22;38162;45.926;13.608;2023-04-12T03:02:20;9.20;70.90
52189;DHT22;38162;45.926;13.608;2023-04-12T03:04:46;9.10;71.40
52189;DHT22;38162;45.926;13.608;2023-04-12T03:07:18;9.10;71.90
52189;DHT22;38162;45.926;13.608;2023-04-12T03:09:49;9.10;71.80
52189;DHT22;38162;45.926;13.608;2023-04-12T03:12:15;9.10;72.40
52189;DHT22;38162;45.926;13.608;2023-04-12T03:14:41;9.00;72.90
52189;DHT22;38162;45.926;13.608;2023-04-12T03:17:08;9.10;72.30
52189;DHT22;38162;45.926;13.608;2023-04-12T03:19:33;9.00;72.10
52189;DHT22;38162;45.926;13.608;2023-04-12T03:22:01;9.10;72.40
52189;DHT22;38162;45.926;13.608;2023-04-12T03:24:28;9.10;72.50
52189;DHT22;38162;45.926;13.608;2023-04-12T03:26:58;9.00;72.20
52189;DHT22;38162;45.926;13.608;2023-04-12T03:29:24;9.10;72.70
52189;DHT22;38162;45.926;13.608;2023-04-12T03:31:50;9.10;72.30
52189;DHT22;38162;45.926;13.608;2023-04-12T03:34:16;9.10;72.50
52189;DHT22;38162;45.926;13.608;2023-04-12T03:36:41;9.10;72.70
52189;DHT22;38162;45.926;13.608;2023-04-12T03:39:07;9.10;73.10
52189;DHT22;38162;45.926;13.608;2023-04-12T03:41:33;9.10;72.40
52189;DHT22;38162;45.926;13.608;2023-04-12T03:43:59;9.10;73.20
52189;DHT22;38162;45.926;13.608;2023-04-12T03:46:25;9.10;72.40
52189;DHT22;38162;45.926;13.608;2023-04-12T03:48:50;9.20;73.10
52189;DHT22;38162;45.926;13.608;2023-04-12T03:51:16;9.20;73.20
52189;DHT22;38162;45.926;13.608;2023-04-12T03:53:42;9.20;72.60
52189;DHT22;38162;45.926;13.608;2023-04-12T03:56:08;9.30;73.10
52189;DHT22;38162;45.926;13.608;2023-04-12T03:58:35;9.30;73.20
52189;DHT22;38162;45.926;13.608;2023-04-12T04:01:04;9.30;72.80
52189;DHT22;38162;45.926;13.608;2023-04-12T04:03:33;9.30;72.50
52189;DHT22;38162;45.926;13.608;2023-04-12T04:06:02;9.40;72.60
52189;DHT22;38162;45.926;13.608;2023-04-12T04:08:28;9.40;72.80
52189;DHT22;38162;45.926;13.608;2023-04-12T04:10:58;9.40;73.30
52189;DHT22;38162;45.926;13.608;2023-04-12T04:13:24;9.40;72.60
52189;DHT22;38162;45.926;13.608;2023-04-12T04:15:59;9.40;72.70
52189;DHT22;38162;45.926;13.608;2023-04-12T04:18:25;9.40;73.10
52189;DHT22;38162;45.926;13.608;2023-04-12T04:20:50;9.40;72.80
52189;DHT22;38162;45.926;13.608;2023-04-12T04:23:16;9.40;73.70
52189;DHT22;38162;45.926;13.608;2023-04-12T04:25:42;9.50;74.30
52189;DHT22;38162;45.926;13.608;2023-04-12T04:28:09;9.50;72.70
52189;DHT22;38162;45.926;13.608;2023-04-12T04:30:35;9.50;72.50
52189;DHT22;38162;45.926;13.608;2023-04-12T04:33:06;9.60;72.70
52189;DHT22;38162;45.926;13.608;2023-04-12T04:35:32;9.50;73.70
52189;DHT22;38162;45.926;13.608;2023-04-12T04:37:57;9.60;73.80
52189;DHT22;38162;45.926;13.608;2023-04-12T04:40:25;9.60;73.70
52189;DHT22;38162;45.926;13.608;2023-04-12T04:42:50;9.60;73.70
52189;DHT22;38162;45.926;13.608;2023-04-12T04:45:23;9.60;74.30
52189;DHT22;38162;45.926;13.608;2023-04-12T04:47:54;9.60;75.00
52189;DHT22;38162;45.926;13.608;2023-04-12T04:50:20;9.60;74.80
52189;DHT22;38162;45.926;13.608;2023-04-12T04:52:47;9.60;74.50
52189;DHT22;38162;45.926;13.608;2023-04-12T04:55:14;9.70;75.50
52189;DHT22;38162;45.926;13.608;2023-04-12T04:57:40;9.60;76.20
52189;DHT22;38162;45.926;13.608;2023-04-12T05:00:06;9.60;76.60
52189;DHT22;38162;45.926;13.608;2023-04-12T05:02:41;9.70;76.50
52189;DHT22;38162;45.926;13.608;2023-04-12T05:05:11;9.70;77.00
52189;DHT22;38162;45.926;13.608;2023-04-12T05:07:38;9.70;76.70
52189;DHT22;38162;45.926;13.608;2023-04-12T05:10:04;9.70;76.10
52189;DHT22;38162;45.926;13.608;2023-04-12T05:12:30;9.70;76.10
52189;DHT22;38162;45.926;13.608;2023-04-12T05:14:56;9.70;76.60
52189;DHT22;38162;45.926;13.608;2023-04-12T05:17:22;9.80;76.60
52189;DHT22;38162;45.926;13.608;2023-04-12T05:19:48;9.80;76.20
52189;DHT22;38162;45.926;13.608;2023-04-12T05:22:13;9.80;76.50
52189;DHT22;38162;45.926;13.608;2023-04-12T05:24:44;9.80;76.40
52189;DHT22;38162;45.926;13.608;2023-04-12T05:27:10;9.80;76.40
52189;DHT22;38162;45.926;13.608;2023-04-12T05:29:36;9.80;76.70
52189;DHT22;38162;45.926;13.608;2023-04-12T05:32:02;9.90;77.00
52189;DHT22;38162;45.926;13.608;2023-04-12T05:34:28;9.90;77.10
52189;DHT22;38162;45.926;13.608;2023-04-12T05:36:55;9.90;77.80
52189;DHT22;38162;45.926;13.608;2023-04-12T05:39:21;9.90;78.10
52189;DHT22;38162;45.926;13.608;2023-04-12T05:41:47;10.00;77.50
52189;DHT22;38162;45.926;13.608;2023-04-12T05:44:13;10.00;77.40
52189;DHT22;38162;45.926;13.608;2023-04-12T05:46:39;10.00;77.50
52189;DHT22;38162;45.926;13.608;2023-04-12T05:49:05;10.00;77.20
52189;DHT22;38162;45.926;13.608;2023-04-12T05:51:31;10.00;77.40
52189;DHT22;38162;45.926;13.608;2023-04-12T05:53:57;10.00;77.10
52189;DHT22;38162;45.926;13.608;2023-04-12T05:56:23;10.00;77.00
52189;DHT22;38162;45.926;13.608;2023-04-12T05:58:49;10.10;77.90
52189;DHT22;38162;45.926;13.608;2023-04-12T06:01:15;10.10;77.90
52189;DHT22;38162;45.926;13.608;2023-04-12T06:03:44;10.10;77.70
52189;DHT22;38162;45.926;13.608;2023-04-12T06:06:10;10.10;77.90
52189;DHT22;38162;45.926;13.608;2023-04-12T06:08:36;10.20;78.00
52189;DHT22;38162;45.926;13.608;2023-04-12T06:11:06;10.20;78.10
52189;DHT22;38162;45.926;13.608;2023-04-12T06:13:32;10.30;78.30
52189;DHT22;38162;45.926;13.608;2023-04-12T06:15:58;10.30;79.00
52189;DHT22;38162;45.926;13.608;2023-04-12T06:18:24;10.30;79.30
52189;DHT22;38162;45.926;13.608;2023-04-12T06:20:50;10.40;79.70
52189;DHT22;38162;45.926;13.608;2023-04-12T06:23:15;10.40;80.40
52189;DHT22;38162;45.926;13.608;2023-04-12T06:25:43;10.40;80.50
52189;DHT22;38162;45.926;13.608;2023-04-12T06:28:09;10.50;81.00
52189;DHT22;38162;45.926;13.608;2023-04-12T06:30:35;10.50;80.70
52189;DHT22;38162;45.926;13.608;2023-04-12T06:33:02;10.50;80.60
52189;DHT22;38162;45.926;13.608;2023-04-12T06:35:27;10.60;80.70
52189;DHT22;38162;45.926;13.608;2023-04-12T06:37:53;10.60;80.20
52189;DHT22;38162;45.926;13.608;2023-04-12T06:40:19;10.60;80.40
52189;DHT22;38162;45.926;13.608;2023-04-12T06:42:45;10.70;80.20
52189;DHT22;38162;45.926;13.608;2023-04-12T06:45:11;10.80;80.40
52189;DHT22;38162;45.926;13.608;2023-04-12T06:47:36;10.80;80.00
52189;DHT22;38162;45.926;13.608;2023-04-12T06:50:02;10.80;79.90
52189;DHT22;38162;45.926;13.608;2023-04-12T06:52:31;10.80;79.90
52189;DHT22;38162;45.926;13.608;2023-04-12T06:54:57;10.90;79.70
52189;DHT22;38162;45.926;13.608;2023-04-12T06:57:22;10.90;79.90
52189;DHT22;38162;45.926;13.608;2023-04-12T06:59:48;11.00;79.30
52189;DHT22;38162;45.926;13.608;2023-04-12T07:02:14;11.00;79.50
52189;DHT22;38162;45.926;13.608;2023-04-12T07:04:40;11.00;79.20
52189;DHT22;38162;45.926;13.608;2023-04-12T07:07:06;11.00;79.30
52189;DHT22;38162;45.926;13.608;2023-04-12T07:09:32;11.00;79.80
52189;DHT22;38162;45.926;13.608;2023-04-12T07:12:00;11.00;80.80
52189;DHT22;38162;45.926;13.608;2023-04-12T07:14:29;11.10;80.30
52189;DHT22;38162;45.926;13.608;2023-04-12T07:16:55;11.10;80.90
52189;DHT22;38162;45.926;13.608;2023-04-12T07:19:20;11.10;80.70
52189;DHT22;38162;45.926;13.608;2023-04-12T07:21:46;11.10;80.90
52189;DHT22;38162;45.926;13.608;2023-04-12T07:24:12;11.10;81.40
52189;DHT22;38162;45.926;13.608;2023-04-12T07:26:38;11.10;80.90
52189;DHT22;38162;45.926;13.608;2023-04-12T07:29:03;11.20;80.90
52189;DHT22;38162;45.926;13.608;2023-04-12T07:31:29;11.20;80.50
52189;DHT22;38162;45.926;13.608;2023-04-12T07:33:55;11.20;80.10
52189;DHT22;38162;45.926;13.608;2023-04-12T07:36:21;11.20;79.80
52189;DHT22;38162;45.926;13.608;2023-04-12T07:38:46;11.20;80.20
52189;DHT22;38162;45.926;13.608;2023-04-12T07:41:13;11.30;80.00
52189;DHT22;38162;45.926;13.608;2023-04-12T07:43:39;11.30;79.90
52189;DHT22;38162;45.926;13.608;2023-04-12T07:46:04;11.40;80.10
52189;DHT22;38162;45.926;13.608;2023-04-12T07:48:33;11.40;79.30
52189;DHT22;38162;45.926;13.608;2023-04-12T07:50:59;11.50;79.00
52189;DHT22;38162;45.926;13.608;2023-04-12T07:53:26;11.50;78.00
52189;DHT22;38162;45.926;13.608;2023-04-12T07:55:54;11.70;77.50
52189;DHT22;38162;45.926;13.608;2023-04-12T07:58:23;11.70;77.00
52189;DHT22;38162;45.926;13.608;2023-04-12T08:00:50;11.80;76.80
52189;DHT22;38162;45.926;13.608;2023-04-12T08:03:17;11.80;76.50
52189;DHT22;38162;45.926;13.608;2023-04-12T08:05:43;11.90;76.10
52189;DHT22;38162;45.926;13.608;2023-04-12T08:08:10;11.90;76.40
52189;DHT22;38162;45.926;13.608;2023-04-12T08:10:36;12.00;73.70
52189;DHT22;38162;45.926;13.608;2023-04-12T08:13:03;12.00;72.50
52189;DHT22;38162;45.926;13.608;2023-04-12T08:15:29;12.00;71.70
52189;DHT22;38162;45.926;13.608;2023-04-12T08:17:55;12.10;70.70
52189;DHT22;38162;45.926;13.608;2023-04-12T08:20:21;12.20;70.60
52189;DHT22;38162;45.926;13.608;2023-04-12T08:22:48;12.20;69.80
52189;DHT22;38162;45.926;13.608;2023-04-12T08:25:14;12.20;69.50
52189;DHT22;38162;45.926;13.608;2023-04-12T08:27:44;12.20;69.60
52189;DHT22;38162;45.926;13.608;2023-04-12T08:30:10;12.20;69.70
52189;DHT22;38162;45.926;13.608;2023-04-12T08:32:36;12.20;69.80
52189;DHT22;38162;45.926;13.608;2023-04-12T08:35:05;12.30;69.70
52189;DHT22;38162;45.926;13.608;2023-04-12T08:37:31;12.30;70.00
52189;DHT22;38162;45.926;13.608;2023-04-12T08:40:03;12.40;69.80
52189;DHT22;38162;45.926;13.608;2023-04-12T08:42:31;12.40;69.20
52189;DHT22;38162;45.926;13.608;2023-04-12T08:44:58;12.40;69.10
52189;DHT22;38162;45.926;13.608;2023-04-12T08:47:24;12.40;70.00
52189;DHT22;38162;45.926;13.608;2023-04-12T08:49:49;12.50;70.40
52189;DHT22;38162;45.926;13.608;2023-04-12T08:52:16;12.50;69.50
52189;DHT22;38162;45.926;13.608;2023-04-12T08:54:41;12.50;67.30
52189;DHT22;38162;45.926;13.608;2023-04-12T08:57:08;12.60;67.20
52189;DHT22;38162;45.926;13.608;2023-04-12T08:59:37;12.60;67.00
52189;DHT22;38162;45.926;13.608;2023-04-12T09:02:03;12.70;65.50
52189;DHT22;38162;45.926;13.608;2023-04-12T09:04:29;12.70;64.60
52189;DHT22;38162;45.926;13.608;2023-04-12T09:06:55;12.70;65.00
52189;DHT22;38162;45.926;13.608;2023-04-12T09:09:43;12.70;65.20
52189;DHT22;38162;45.926;13.608;2023-04-12T09:12:10;12.80;64.30
52189;DHT22;38162;45.926;13.608;2023-04-12T09:14:37;12.80;63.10
52189;DHT22;38162;45.926;13.608;2023-04-12T09:17:03;12.80;63.70
52189;DHT22;38162;45.926;13.608;2023-04-12T09:19:34;12.90;63.70
52189;DHT22;38162;45.926;13.608;2023-04-12T09:22:00;12.90;64.00
52189;DHT22;38162;45.926;13.608;2023-04-12T09:24:27;12.90;64.10
52189;DHT22;38162;45.926;13.608;2023-04-12T09:27:03;13.00;64.00
52189;DHT22;38162;45.926;13.608;2023-04-12T09:29:30;13.00;63.10
52189;DHT22;38162;45.926;13.608;2023-04-12T09:34:24;13.10;63.00
52189;DHT22;38162;45.926;13.608;2023-04-12T09:36:50;13.10;62.50
52189;DHT22;38162;45.926;13.608;2023-04-12T09:39:16;13.10;61.70
52189;DHT22;38162;45.926;13.608;2023-04-12T09:41:42;13.20;61.90
52189;DHT22;38162;45.926;13.608;2023-04-12T09:44:08;13.20;62.00
52189;DHT22;38162;45.926;13.608;2023-04-12T09:46:33;13.30;61.80
52189;DHT22;38162;45.926;13.608;2023-04-12T09:48:59;13.30;61.60
52189;DHT22;38162;45.926;13.608;2023-04-12T09:51:29;13.40;61.60
52189;DHT22;38162;45.926;13.608;2023-04-12T09:54:04;13.40;61.80
52189;DHT22;38162;45.926;13.608;2023-04-12T09:56:33;13.40;61.50
52189;DHT22;38162;45.926;13.608;2023-04-12T09:59:06;13.50;61.30
52189;DHT22;38162;45.926;13.608;2023-04-12T10:01:37;13.60;60.70
52189;DHT22;38162;45.926;13.608;2023-04-12T10:04:07;13.70;60.30
52189;DHT22;38162;45.926;13.608;2023-04-12T10:06:34;13.70;60.30
52189;DHT22;38162;45.926;13.608;2023-04-12T10:09:05;13.80;60.20
52189;DHT22;38162;45.926;13.608;2023-04-12T10:11:31;13.80;59.90
52189;DHT22;38162;45.926;13.608;2023-04-12T10:13:58;13.90;59.50
52189;DHT22;38162;45.926;13.608;2023-04-12T10:16:26;13.90;58.50
52189;DHT22;38162;45.926;13.608;2023-04-12T10:18:54;13.90;58.90
52189;DHT22;38162;45.926;13.608;2023-04-12T10:21:20;14.00;59.40
52189;DHT22;38162;45.926;13.608;2023-04-12T10:23:46;14.00;58.40
52189;DHT22;38162;45.926;13.608;2023-04-12T10:26:14;14.10;57.80
52189;DHT22;38162;45.926;13.608;2023-04-12T10:28:41;14.10;56.90
52189;DHT22;38162;45.926;13.608;2023-04-12T10:31:29;14.20;56.70
52189;DHT22;38162;45.926;13.608;2023-04-12T10:33:55;14.20;57.00
52189;DHT22;38162;45.926;13.608;2023-04-12T10:39:15;14.40;57.00
52189;DHT22;38162;45.926;13.608;2023-04-12T10:44:45;14.70;56.80
52189;DHT22;38162;45.926;13.608;2023-04-12T10:47:11;14.90;57.00
52189;DHT22;38162;45.926;13.608;2023-04-12T10:49:37;14.90;55.50
52189;DHT22;38162;45.926;13.608;2023-04-12T10:54:31;15.10;54.40
52189;DHT22;38162;45.926;13.608;2023-04-12T10:57:00;15.10;53.40
52189;DHT22;38162;45.926;13.608;2023-04-12T11:02:15;15.20;52.80
52189;DHT22;38162;45.926;13.608;2023-04-12T11:05:09;15.20;52.70
52189;DHT22;38162;45.926;13.608;2023-04-12T11:07:39;15.30;53.50
52189;DHT22;38162;45.926;13.608;2023-04-12T11:10:15;15.30;53.10
52189;DHT22;38162;45.926;13.608;2023-04-12T11:12:53;15.40;52.20
52189;DHT22;38162;45.926;13.608;2023-04-12T11:15:25;15.40;52.40
52189;DHT22;38162;45.926;13.608;2023-04-12T11:17:56;15.40;52.50
52189;DHT22;38162;45.926;13.608;2023-04-12T11:20:25;15.50;53.80
52189;DHT22;38162;45.926;13.608;2023-04-12T11:22:52;15.50;53.50
52189;DHT22;38162;45.926;13.608;2023-04-12T11:25:19;15.50;52.40
52189;DHT22;38162;45.926;13.608;2023-04-12T11:27:49;15.60;51.10
52189;DHT22;38162;45.926;13.608;2023-04-12T11:30:16;15.60;50.90
52189;DHT22;38162;45.926;13.608;2023-04-12T11:32:44;15.60;51.10
52189;DHT22;38162;45.926;13.608;2023-04-12T11:35:10;15.50;52.00
52189;DHT22;38162;45.926;13.608;2023-04-12T11:37:37;15.60;51.90
52189;DHT22;38162;45.926;13.608;2023-04-12T11:40:04;15.60;52.30
52189;DHT22;38162;45.926;13.608;2023-04-12T11:42:31;15.60;53.00
52189;DHT22;38162;45.926;13.608;2023-04-12T11:44:57;15.50;53.30
52189;DHT22;38162;45.926;13.608;2023-04-12T11:47:24;15.60;53.00
52189;DHT22;38162;45.926;13.608;2023-04-12T11:49:53;15.60;51.50
52189;DHT22;38162;45.926;13.608;2023-04-12T11:52:20;15.60;51.10
52189;DHT22;38162;45.926;13.608;2023-04-12T11:54:50;15.60;51.20
52189;DHT22;38162;45.926;13.608;2023-04-12T11:57:17;15.70;52.00
52189;DHT22;38162;45.926;13.608;2023-04-12T11:59:45;15.70;52.60
52189;DHT22;38162;45.926;13.608;2023-04-12T12:02:12;15.80;51.30
52189;DHT22;38162;45.926;13.608;2023-04-12T12:04:43;15.90;51.10
52189;DHT22;38162;45.926;13.608;2023-04-12T12:07:16;15.90;51.00
52189;DHT22;38162;45.926;13.608;2023-04-12T12:09:44;15.90;50.10
52189;DHT22;38162;45.926;13.608;2023-04-12T12:12:11;15.90;49.60
52189;DHT22;38162;45.926;13.608;2023-04-12T12:14:37;16.00;49.50
52189;DHT22;38162;45.926;13.608;2023-04-12T12:17:14;16.00;50.20
52189;DHT22;38162;45.926;13.608;2023-04-12T12:19:41;16.10;49.60
52189;DHT22;38162;45.926;13.608;2023-04-12T12:22:18;16.20;49.40
52189;DHT22;38162;45.926;13.608;2023-04-12T12:24:49;16.20;48.80
52189;DHT22;38162;45.926;13.608;2023-04-12T12:27:22;16.30;49.00
52189;DHT22;38162;45.926;13.608;2023-04-12T12:29:51;16.30;48.70
52189;DHT22;38162;45.926;13.608;2023-04-12T12:32:18;16.30;49.20
52189;DHT22;38162;45.926;13.608;2023-04-12T12:34:54;16.30;49.20
52189;DHT22;38162;45.926;13.608;2023-04-12T12:37:23;16.40;48.70
52189;DHT22;38162;45.926;13.608;2023-04-12T12:42:51;16.40;47.50
52189;DHT22;38162;45.926;13.608;2023-04-12T12:45:20;16.40;48.30
52189;DHT22;38162;45.926;13.608;2023-04-12T12:47:59;16.50;48.70
52189;DHT22;38162;45.926;13.608;2023-04-12T12:50:28;16.60;48.40
52189;DHT22;38162;45.926;13.608;2023-04-12T12:52:54;16.70;48.80
52189;DHT22;38162;45.926;13.608;2023-04-12T12:55:21;16.80;48.90
52189;DHT22;38162;45.926;13.608;2023-04-12T12:57:50;16.80;48.00
52189;DHT22;38162;45.926;13.608;2023-04-12T13:00:17;16.80;47.70
52189;DHT22;38162;45.926;13.608;2023-04-12T13:02:43;16.90;47.30
52189;DHT22;38162;45.926;13.608;2023-04-12T13:05:10;16.90;47.70
52189;DHT22;38162;45.926;13.608;2023-04-12T13:07:36;16.90;47.30
52189;DHT22;38162;45.926;13.608;2023-04-12T13:10:03;16.90;47.60
52189;DHT22;38162;45.926;13.608;2023-04-12T13:12:29;16.90;47.60
52189;DHT22;38162;45.926;13.608;2023-04-12T13:14:56;16.90;47.80
52189;DHT22;38162;45.926;13.608;2023-04-12T13:17:22;16.90;47.50
52189;DHT22;38162;45.926;13.608;2023-04-12T13:19:48;17.00;47.50
52189;DHT22;38162;45.926;13.608;2023-04-12T13:22:15;17.00;47.70
52189;DHT22;38162;45.926;13.608;2023-04-12T13:24:41;16.90;46.90
52189;DHT22;38162;45.926;13.608;2023-04-12T13:27:08;17.00;46.80
52189;DHT22;38162;45.926;13.608;2023-04-12T13:29:34;17.00;47.70
52189;DHT22;38162;45.926;13.608;2023-04-12T13:32:00;17.00;46.50
52189;DHT22;38162;45.926;13.608;2023-04-12T13:34:26;17.00;47.70
52189;DHT22;38162;45.926;13.608;2023-04-12T13:36:52;17.10;48.20
52189;DHT22;38162;45.926;13.608;2023-04-12T13:39:18;17.10;49.40
52189;DHT22;38162;45.926;13.608;2023-04-12T13:41:43;17.20;47.30
52189;DHT22;38162;45.926;13.608;2023-04-12T13:44:09;17.10;47.00
52189;DHT22;38162;45.926;13.608;2023-04-12T13:46:35;17.10;46.90
52189;DHT22;38162;45.926;13.608;2023-04-12T13:49:01;17.00;46.80
52189;DHT22;38162;45.926;13.608;2023-04-12T13:51:27;16.90;47.10
52189;DHT22;38162;45.926;13.608;2023-04-12T13:53:54;16.90;46.70
52189;DHT22;38162;45.926;13.608;2023-04-12T13:56:20;16.80;47.10
52189;DHT22;38162;45.926;13.608;2023-04-12T13:58:46;16.80;48.00
52189;DHT22;38162;45.926;13.608;2023-04-12T14:01:12;16.70;47.60
52189;DHT22;38162;45.926;13.608;2023-04-12T14:03:39;16.70;47.40
52189;DHT22;38162;45.926;13.608;2023-04-12T14:06:05;16.70;47.00
52189;DHT22;38162;45.926;13.608;2023-04-12T14:08:32;16.60;47.70
52189;DHT22;38162;45.926;13.608;2023-04-12T14:10:58;16.60;47.00
52189;DHT22;38162;45.926;13.608;2023-04-12T14:13:25;16.60;47.20
52189;DHT22;38162;45.926;13.608;2023-04-12T14:15:51;16.50;47.40
52189;DHT22;38162;45.926;13.608;2023-04-12T14:18:18;16.50;47.80
52189;DHT22;38162;45.926;13.608;2023-04-12T14:20:44;16.50;47.20
52189;DHT22;38162;45.926;13.608;2023-04-12T14:23:13;16.50;46.70
52189;DHT22;38162;45.926;13.608;2023-04-12T14:25:39;16.40;47.40
52189;DHT22;38162;45.926;13.608;2023-04-12T14:28:05;16.40;46.90
52189;DHT22;38162;45.926;13.608;2023-04-12T14:30:31;16.40;47.40
52189;DHT22;38162;45.926;13.608;2023-04-12T14:32:57;16.30;46.70
52189;DHT22;38162;45.926;13.608;2023-04-12T14:35:23;16.30;46.10
52189;DHT22;38162;45.926;13.608;2023-04-12T14:37:49;16.20;46.30
52189;DHT22;38162;45.926;13.608;2023-04-12T14:40:15;16.20;46.60
52189;DHT22;38162;45.926;13.608;2023-04-12T14:42:42;16.10;46.90
52189;DHT22;38162;45.926;13.608;2023-04-12T14:45:09;16.10;46.70
52189;DHT22;38162;45.926;13.608;2023-04-12T14:47:35;16.10;46.70
52189;DHT22;38162;45.926;13.608;2023-04-12T14:50:04;16.10;46.40
52189;DHT22;38162;45.926;13.608;2023-04-12T14:52:30;16.00;46.80
52189;DHT22;38162;45.926;13.608;2023-04-12T14:54:56;16.00;46.80
52189;DHT22;38162;45.926;13.608;2023-04-12T14:57:22;15.90;46.50
52189;DHT22;38162;45.926;13.608;2023-04-12T14:59:48;15.90;46.40
52189;DHT22;38162;45.926;13.608;2023-04-12T15:02:14;15.90;46.90
52189;DHT22;38162;45.926;13.608;2023-04-12T15:04:39;15.90;46.70
52189;DHT22;38162;45.926;13.608;2023-04-12T15:07:05;15.90;47.00
52189;DHT22;38162;45.926;13.608;2023-04-12T15:09:31;15.90;47.10
52189;DHT22;38162;45.926;13.608;2023-04-12T15:11:57;15.80;47.10
52189;DHT22;38162;45.926;13.608;2023-04-12T15:14:26;15.80;47.10
52189;DHT22;38162;45.926;13.608;2023-04-12T15:16:52;15.80;47.10
52189;DHT22;38162;45.926;13.608;2023-04-12T15:19:20;15.70;47.90
52189;DHT22;38162;45.926;13.608;2023-04-12T15:21:47;15.70;47.40
52189;DHT22;38162;45.926;13.608;2023-04-12T15:24:20;15.60;48.00
52189;DHT22;38162;45.926;13.608;2023-04-12T15:26:50;15.70;48.60
52189;DHT22;38162;45.926;13.608;2023-04-12T15:29:18;15.70;48.70
52189;DHT22;38162;45.926;13.608;2023-04-12T15:31:44;15.60;47.90
52189;DHT22;38162;45.926;13.608;2023-04-12T15:34:10;15.60;48.10
52189;DHT22;38162;45.926;13.608;2023-04-12T15:36:37;15.60;48.30
52189;DHT22;38162;45.926;13.608;2023-04-12T15:39:05;15.60;47.80
52189;DHT22;38162;45.926;13.608;2023-04-12T15:41:36;15.60;48.20
52189;DHT22;38162;45.926;13.608;2023-04-12T15:44:06;15.60;48.30
52189;DHT22;38162;45.926;13.608;2023-04-12T15:46:33;15.50;48.30
52189;DHT22;38162;45.926;13.608;2023-04-12T15:48:59;15.50;48.40